Time;durP1;ratioP1;P1;durP2;ratioP2;P2;SDS_P1;SDS_P2;PMS_P1;PMS_P2;Temp;Humidity;BMP_temperature;BMP_pressure;BME280_temperature;BME280_humidity;BME280_pressure;Samples;Min_cycle;Max_cycle;Signal;HPM_P1;HPM_P2
2021/03/28 00:01:53;;;;;;;4.17;2.37;;;14.70;35.70;;;;;;5052363;28;20459;-42
2021/03/28 00:04:22;;;;;;;4.20;2.07;;;14.70;35.80;;;;;;5052465;28;20434;-43
2021/03/28 00:06:47;;;;;;;3.67;1.97;;;14.60;35.80;;;;;;5051742;28;20807;-42
2021/03/28 00:09:39;;;;;;;9.40;2.13;;;14.60;35.90;;;;;;5052847;28;20438;-43
2021/03/28 00:12:23;;;;;;;4.07;1.73;;;14.50;36.00;;;;;;5035856;28;20240;-42
2021/03/28 00:14:54;;;;;;;8.70;2.17;;;14.50;36.20;;;;;;5051949;28;20441;-43
2021/03/28 00:17:20;;;;;;;3.50;2.27;;;14.40;36.30;;;;;;5051998;28;20839;-42
2021/03/28 00:19:57;;;;;;;4.07;2.10;;;14.30;36.30;;;;;;5049541;28;20433;-42
2021/03/28 00:22:32;;;;;;;5.80;2.87;;;14.30;36.40;;;;;;5052439;28;21033;-42
2021/03/28 00:25:21;;;;;;;8.87;3.80;;;14.30;36.60;;;;;;5051429;28;20521;-41
2021/03/28 00:27:51;;;;;;;5.10;2.80;;;14.10;36.80;;;;;;5050964;28;20446;-41
2021/03/28 00:30:30;;;;;;;5.80;2.33;;;14.10;36.90;;;;;;5051656;28;20431;-41
2021/03/28 00:33:20;;;;;;;4.10;1.80;;;14.00;37.00;;;;;;5052318;28;20565;-43
2021/03/28 00:35:46;;;;;;;5.60;2.37;;;14.00;37.10;;;;;;5051541;28;21006;-42
2021/03/28 00:38:15;;;;;;;3.60;2.00;;;13.90;37.20;;;;;;5052228;28;20524;-43
2021/03/28 00:40:42;;;;;;;6.33;2.20;;;13.90;37.20;;;;;;5048761;28;20201;-43
2021/03/28 00:43:15;;;;;;;5.00;2.10;;;13.80;37.30;;;;;;5051803;28;20431;-42
2021/03/28 00:45:40;;;;;;;4.47;1.67;;;13.80;37.50;;;;;;5051075;28;20481;-42
2021/03/28 00:48:34;;;;;;;6.23;2.10;;;13.70;37.50;;;;;;5052020;28;20437;-42
2021/03/28 00:51:20;;;;;;;3.20;2.03;;;13.70;37.60;;;;;;5051343;28;20275;-42
2021/03/28 00:53:50;;;;;;;5.03;2.17;;;13.70;37.70;;;;;;5051410;28;20431;-42
2021/03/28 00:56:42;;;;;;;3.53;1.63;;;13.70;37.80;;;;;;5051449;28;20525;-42
2021/03/28 00:59:34;;;;;;;3.93;2.13;;;13.60;37.70;;;;;;5051665;28;20500;-44
2021/03/28 01:02:32;;;;;;;6.23;2.17;;;13.60;37.80;;;;;;5050782;28;20419;-43
2021/03/28 01:05:01;;;;;;;4.30;1.90;;;13.50;38.00;;;;;;5050529;28;20482;-44
2021/03/28 01:07:32;;;;;;;5.53;2.13;;;13.40;38.00;;;;;;5050350;28;20463;-42
2021/03/28 01:10:17;;;;;;;4.20;2.50;;;13.40;38.20;;;;;;5051106;28;20446;-42
2021/03/28 01:12:57;;;;;;;4.47;3.50;;;13.40;38.20;;;;;;5051524;28;20478;-43
2021/03/28 01:15:53;;;;;;;7.10;5.00;;;13.30;38.90;;;;;;5038386;28;20497;-44
2021/03/28 01:18:40;;;;;;;6.93;4.00;;;13.30;38.40;;;;;;5050580;28;20435;-43
2021/03/28 01:21:18;;;;;;;3.57;2.30;;;13.20;38.40;;;;;;5047436;28;20446;-43
2021/03/28 01:23:46;;;;;;;4.10;2.30;;;13.20;38.70;;;;;;5050855;28;20452;-42
2021/03/28 01:26:19;;;;;;;6.10;2.33;;;13.20;38.80;;;;;;5050747;28;20431;-42
2021/03/28 01:28:55;;;;;;;2.17;1.67;;;13.10;38.80;;;;;;5050881;28;20431;-44
2021/03/28 01:31:29;;;;;;;3.23;2.30;;;13.10;38.80;;;;;;5050200;28;20469;-43
2021/03/28 01:34:06;;;;;;;6.83;2.33;;;13.10;38.90;;;;;;5049137;28;20447;-42
2021/03/28 01:36:51;;;;;;;4.10;2.73;;;13.00;38.80;;;;;;5050520;28;20430;-42
2021/03/28 01:39:27;;;;;;;4.90;2.50;;;13.00;38.90;;;;;;5050995;28;20432;-42
2021/03/28 01:42:03;;;;;;;5.90;2.17;;;13.00;38.90;;;;;;5050446;28;20456;-43
2021/03/28 01:44:34;;;;;;;6.70;2.53;;;13.00;39.10;;;;;;5050646;28;20796;-42
2021/03/28 01:47:32;;;;;;;3.70;2.20;;;12.90;39.20;;;;;;5050634;28;20446;-42
2021/03/28 01:50:19;;;;;;;5.17;2.07;;;12.80;39.40;;;;;;5026873;28;20805;-42
2021/03/28 01:52:54;;;;;;;2.90;1.83;;;12.80;39.60;;;;;;5038651;28;20590;-42
2021/03/28 01:55:41;;;;;;;5.27;2.10;;;12.70;39.70;;;;;;5049744;28;20514;-41
2021/03/28 01:58:21;;;;;;;6.40;2.30;;;12.70;40.00;;;;;;5050885;28;20597;-41
2021/03/28 02:01:09;;;;;;;4.10;2.00;;;12.60;40.10;;;;;;5048947;28;20467;-42
2021/03/28 02:03:46;;;;;;;4.03;1.77;;;12.60;40.10;;;;;;5050600;28;20443;-41
2021/03/28 02:06:26;;;;;;;6.97;2.13;;;12.50;40.10;;;;;;5050583;28;20431;-42
2021/03/28 02:09:24;;;;;;;4.27;2.47;;;12.60;40.30;;;;;;5050776;28;20470;-41
2021/03/28 02:12:07;;;;;;;6.07;2.60;;;12.60;40.30;;;;;;5050177;28;21031;-42
2021/03/28 02:14:50;;;;;;;6.63;2.40;;;12.50;40.40;;;;;;5050208;28;20439;-42
2021/03/28 02:17:28;;;;;;;6.87;3.47;;;12.50;40.50;;;;;;5049584;28;20423;-42
2021/03/28 02:20:19;;;;;;;7.20;3.40;;;12.50;40.60;;;;;;5046612;28;20494;-42
2021/03/28 02:23:08;;;;;;;8.10;3.00;;;12.50;40.70;;;;;;5050611;28;20435;-43
2021/03/28 02:26:02;;;;;;;7.80;3.90;;;12.50;40.60;;;;;;5046375;28;20530;-42
2021/03/28 02:28:59;;;;;;;6.57;2.70;;;12.50;40.60;;;;;;5050731;28;20846;-42
2021/03/28 02:31:35;;;;;;;6.93;3.20;;;12.50;40.50;;;;;;5049728;28;20479;-42
2021/03/28 02:34:17;;;;;;;4.20;2.47;;;12.50;40.50;;;;;;5050020;28;20427;-43
2021/03/28 02:37:07;;;;;;;3.77;3.07;;;12.50;40.60;;;;;;5049791;28;20926;-44
2021/03/28 02:39:32;;;;;;;6.47;2.57;;;12.60;40.60;;;;;;5051592;28;20419;-43
2021/03/28 02:42:23;;;;;;;5.33;2.77;;;12.60;40.60;;;;;;5053790;28;20438;-44
2021/03/28 02:45:17;;;;;;;6.60;2.17;;;12.60;40.80;;;;;;5053947;28;20201;-44
2021/03/28 02:47:51;;;;;;;6.90;2.20;;;12.60;40.70;;;;;;5054119;28;21000;-42
2021/03/28 02:50:48;;;;;;;4.17;2.30;;;12.60;40.80;;;;;;5053680;28;20433;-42
2021/03/28 02:53:51;;;;;;;6.40;2.40;;;12.60;40.90;;;;;;5052636;28;20829;-43
2021/03/28 02:56:47;;;;;;;2.90;2.00;;;12.60;40.90;;;;;;5053790;28;20926;-41
2021/03/28 02:59:19;;;;;;;5.63;2.70;;;12.60;40.90;;;;;;5054168;28;20434;-43
2021/03/28 03:02:17;;;;;;;5.13;2.50;;;12.60;41.20;;;;;;5053643;28;20471;-42
2021/03/28 03:05:04;;;;;;;4.90;2.20;;;12.50;41.20;;;;;;5032614;28;20440;-42
2021/03/28 03:07:54;;;;;;;3.10;2.03;;;12.40;41.60;;;;;;5042220;28;20837;-43
2021/03/28 03:10:46;;;;;;;4.93;2.00;;;12.40;41.60;;;;;;5053096;28;20419;-41
2021/03/28 03:13:32;;;;;;;3.50;1.77;;;12.40;41.60;;;;;;5053628;28;20470;-41
2021/03/28 03:16:16;;;;;;;2.43;2.13;;;12.40;41.60;;;;;;5053156;28;20435;-43
2021/03/28 03:19:19;;;;;;;4.23;2.53;;;12.30;42.00;;;;;;5041078;28;20850;-42
2021/03/28 03:22:03;;;;;;;3.70;1.80;;;12.20;42.20;;;;;;5029267;28;20449;-43
2021/03/28 03:25:00;;;;;;;4.57;2.10;;;11.90;42.90;;;;;;5053197;28;20441;-41
2021/03/28 03:27:43;;;;;;;5.40;2.23;;;11.70;43.40;;;;;;5053570;28;20469;-42
2021/03/28 03:30:56;;;;;;;10.10;2.10;;;11.40;44.20;;;;;;5052753;28;20442;-42
2021/03/28 03:33:49;;;;;;;4.23;1.70;;;11.30;44.70;;;;;;5000814;28;20952;-42
2021/03/28 03:36:40;;;;;;;5.70;2.40;;;11.50;44.40;;;;;;5010955;28;20850;-42
2021/03/28 03:39:23;;;;;;;5.07;2.30;;;11.60;43.90;;;;;;5032828;28;20469;-42
2021/03/28 03:42:13;;;;;;;5.17;2.50;;;11.70;43.80;;;;;;5052755;28;20899;-41
2021/03/28 03:44:57;;;;;;;3.90;2.50;;;11.70;43.70;;;;;;5052931;28;20488;-42
2021/03/28 03:48:12;;;;;;;2.43;1.87;;;11.80;43.50;;;;;;5051116;28;20924;-41
2021/03/28 03:51:15;;;;;;;5.10;2.50;;;11.90;43.40;;;;;;5050660;28;20454;-42
2021/03/28 03:54:09;;;;;;;8.40;1.90;;;11.90;43.20;;;;;;5052700;28;20529;-41
2021/03/28 03:57:25;;;;;;;5.27;2.00;;;11.90;43.20;;;;;;5030416;28;20436;-42
2021/03/28 04:00:14;;;;;;;5.00;2.00;;;11.90;43.40;;;;;;5029453;28;20823;-42
2021/03/28 04:02:54;;;;;;;10.07;2.40;;;11.90;43.30;;;;;;5052959;28;20441;-43
2021/03/28 04:05:29;;;;;;;2.30;1.70;;;11.90;43.40;;;;;;5051957;28;20427;-41
2021/03/28 04:08:26;;;;;;;6.00;1.80;;;11.90;43.50;;;;;;5052764;28;20469;-41
2021/03/28 04:11:21;;;;;;;8.37;2.47;;;11.90;43.60;;;;;;5051955;28;20498;-41
2021/03/28 04:14:08;;;;;;;3.83;2.50;;;11.90;43.60;;;;;;5050830;28;20445;-44
2021/03/28 04:17:00;;;;;;;4.33;2.00;;;11.80;43.60;;;;;;5050592;28;20860;-43
2021/03/28 04:19:38;;;;;;;5.83;2.20;;;11.90;43.70;;;;;;5049265;28;20436;-41
2021/03/28 04:22:41;;;;;;;6.37;2.40;;;11.80;43.50;;;;;;5052126;28;20427;-43
2021/03/28 04:25:39;;;;;;;8.07;2.30;;;11.70;43.60;;;;;;5051608;28;20431;-43
2021/03/28 04:28:23;;;;;;;4.70;2.00;;;11.80;43.50;;;;;;5050735;28;20449;-42
2021/03/28 04:30:57;;;;;;;5.53;2.17;;;11.80;43.70;;;;;;5051702;28;20507;-43
2021/03/28 04:33:35;;;;;;;2.30;1.70;;;11.70;44.00;;;;;;5052200;28;20781;-42
2021/03/28 04:36:34;;;;;;;6.57;2.60;;;11.60;44.10;;;;;;5051572;28;20514;-43
2021/03/28 04:39:12;;;;;;;8.63;2.93;;;11.60;44.20;;;;;;5050393;28;20435;-44
2021/03/28 04:42:10;;;;;;;6.10;2.20;;;11.60;44.10;;;;;;5051750;28;21237;-43
2021/03/28 04:45:01;;;;;;;3.97;1.90;;;11.60;44.20;;;;;;5051475;28;20427;-43
2021/03/28 04:47:46;;;;;;;4.57;2.10;;;11.60;44.10;;;;;;5052176;28;20958;-41
2021/03/28 04:50:37;;;;;;;2.43;2.13;;;11.60;43.90;;;;;;5026881;28;20858;-41
2021/03/28 04:53:14;;;;;;;2.80;1.83;;;11.60;43.90;;;;;;5051863;28;20475;-43
2021/03/28 04:56:05;;;;;;;4.93;2.10;;;11.60;44.00;;;;;;5051427;28;20430;-45
2021/03/28 04:58:57;;;;;;;2.87;2.10;;;11.60;44.00;;;;;;5051802;28;20827;-42
2021/03/28 05:01:41;;;;;;;3.53;2.03;;;11.50;44.20;;;;;;5051107;28;20471;-42
2021/03/28 05:04:21;;;;;;;7.70;2.17;;;11.40;44.10;;;;;;5050947;28;20908;-41
2021/03/28 05:07:42;;;;;;;2.97;1.83;;;11.50;44.10;;;;;;5049273;28;20478;-41
2021/03/28 05:10:30;;;;;;;5.00;2.20;;;11.40;44.10;;;;;;5050053;28;20880;-41
2021/03/28 05:13:14;;;;;;;3.90;1.90;;;11.30;44.50;;;;;;5051359;28;20570;-41
2021/03/28 05:16:17;;;;;;;4.97;2.30;;;11.10;44.80;;;;;;5051254;28;20420;-41
2021/03/28 05:19:12;;;;;;;5.37;2.10;;;10.90;45.50;;;;;;5040145;28;20431;-41
2021/03/28 05:22:06;;;;;;;4.03;1.87;;;10.90;45.70;;;;;;5049485;28;20473;-42
2021/03/28 05:24:50;;;;;;;4.70;2.33;;;10.70;46.40;;;;;;5050850;28;20423;-41
2021/03/28 05:27:24;;;;;;;4.73;1.97;;;10.70;47.20;;;;;;5051123;28;20423;-43
2021/03/28 05:30:05;;;;;;;6.43;2.60;;;10.70;46.60;;;;;;5051091;28;20423;-41
2021/03/28 05:32:33;;;;;;;2.20;1.87;;;10.70;46.70;;;;;;5044123;28;20489;-42
2021/03/28 05:35:28;;;;;;;2.80;1.83;;;10.70;46.80;;;;;;5050488;28;20424;-43
2021/03/28 05:37:54;;;;;;;2.57;2.23;;;10.60;46.60;;;;;;5051117;28;20489;-42
2021/03/28 05:40:38;;;;;;;5.50;2.30;;;10.60;47.00;;;;;;5050714;28;20423;-42
2021/03/28 05:43:47;;;;;;;4.77;2.50;;;10.60;47.10;;;;;;5050709;28;20197;-41
2021/03/28 05:46:21;;;;;;;4.03;2.70;;;10.40;47.20;;;;;;5049192;28;20542;-41
2021/03/28 05:49:02;;;;;;;6.23;2.80;;;10.40;47.50;;;;;;5050831;28;20488;-41
2021/03/28 05:51:55;;;;;;;4.20;2.30;;;10.30;47.60;;;;;;5050359;28;20566;-42
2021/03/28 05:54:49;;;;;;;4.17;2.53;;;10.40;47.60;;;;;;5049259;28;20443;-41
2021/03/28 05:57:52;;;;;;;4.30;2.33;;;10.60;47.20;;;;;;5050872;28;20522;-42
2021/03/28 06:00:58;;;;;;;6.73;2.37;;;10.60;47.00;;;;;;5048814;28;20445;-42
2021/03/28 06:04:08;;;;;;;6.77;2.60;;;10.70;46.70;;;;;;5028272;28;20447;-41
2021/03/28 06:06:55;;;;;;;6.47;2.07;;;10.70;46.30;;;;;;5049843;28;20987;-42
2021/03/28 06:10:08;;;;;;;3.70;2.53;;;10.70;46.20;;;;;;5050867;28;20457;-41
2021/03/28 06:12:44;;;;;;;6.63;1.90;;;10.90;45.90;;;;;;5022969;28;20613;-41
2021/03/28 06:15:41;;;;;;;2.80;1.90;;;11.00;45.70;;;;;;5055403;28;20423;-41
2021/03/28 06:18:25;;;;;;;6.30;1.87;;;11.10;45.40;;;;;;5056254;28;20447;-43
2021/03/28 06:21:30;;;;;;;4.63;1.90;;;11.30;45.10;;;;;;5053474;28;20552;-42
2021/03/28 06:24:35;;;;;;;4.00;2.40;;;11.40;44.70;;;;;;5057146;28;20426;-42
2021/03/28 06:27:01;;;;;;;4.13;2.03;;;11.60;44.50;;;;;;5054233;28;20836;-41
2021/03/28 06:30:00;;;;;;;7.10;1.93;;;11.60;44.20;;;;;;5057003;28;20437;-41
2021/03/28 06:33:03;;;;;;;5.77;2.37;;;11.80;44.10;;;;;;5051645;28;20269;-42
2021/03/28 06:35:58;;;;;;;3.53;2.27;;;12.00;43.80;;;;;;5056777;28;20483;-42
2021/03/28 06:38:36;;;;;;;5.23;2.20;;;12.10;43.30;;;;;;5057350;28;20438;-42
2021/03/28 06:41:29;;;;;;;5.67;1.90;;;12.30;42.90;;;;;;5056387;28;20480;-43
2021/03/28 06:44:09;;;;;;;5.20;2.67;;;12.50;42.60;;;;;;5056744;28;20439;-42
2021/03/28 06:46:54;;;;;;;2.80;1.80;;;12.30;42.20;;;;;;5056658;28;20510;-42
2021/03/28 06:49:34;;;;;;;5.17;2.07;;;12.40;42.60;;;;;;5055629;28;20461;-42
2021/03/28 06:52:21;;;;;;;4.33;2.30;;;12.70;42.70;;;;;;5055728;28;20489;-42
2021/03/28 06:55:06;;;;;;;6.43;2.63;;;12.80;42.90;;;;;;5056856;28;20847;-42
2021/03/28 06:57:49;;;;;;;3.83;2.70;;;13.00;42.80;;;;;;5057017;28;20427;-43
2021/03/28 07:00:43;;;;;;;6.73;2.27;;;12.70;42.90;;;;;;5056369;28;20525;-42
2021/03/28 07:03:24;;;;;;;5.17;2.57;;;12.80;43.10;;;;;;5056450;28;20537;-44
2021/03/28 07:06:06;;;;;;;4.33;2.00;;;12.70;43.00;;;;;;5056374;28;20956;-44
2021/03/28 07:09:15;;;;;;;4.13;1.93;;;12.60;43.30;;;;;;5056793;28;20826;-42
2021/03/28 07:12:14;;;;;;;7.80;2.50;;;12.50;42.30;;;;;;5056402;28;20570;-42
2021/03/28 07:15:01;;;;;;;3.50;1.70;;;12.60;42.50;;;;;;5056242;28;20431;-42
2021/03/28 07:18:03;;;;;;;5.60;2.00;;;12.60;42.20;;;;;;5055760;28;20431;-42
2021/03/28 07:20:50;;;;;;;7.30;2.30;;;12.80;42.00;;;;;;5051051;28;20540;-42
2021/03/28 07:23:53;;;;;;;3.07;1.73;;;12.80;42.00;;;;;;5056499;28;20528;-43
2021/03/28 07:26:37;;;;;;;7.07;1.90;;;13.10;41.20;;;;;;5052897;28;20836;-42
2021/03/28 07:29:37;;;;;;;3.90;1.67;;;13.20;41.00;;;;;;5053475;28;20930;-41
2021/03/28 07:32:17;;;;;;;3.37;2.03;;;13.60;40.40;;;;;;5052713;28;20478;-42
2021/03/28 07:35:14;;;;;;;5.53;2.30;;;13.70;40.40;;;;;;5053121;28;20960;-43
2021/03/28 07:38:03;;;;;;;4.20;2.00;;;13.60;40.20;;;;;;5053446;28;20469;-44
2021/03/28 07:40:38;;;;;;;3.50;1.80;;;13.70;40.20;;;;;;5052638;28;20474;-42
2021/03/28 07:43:33;;;;;;;5.87;2.13;;;13.80;39.40;;;;;;5052725;28;20805;-41
2021/03/28 07:46:20;;;;;;;6.00;2.07;;;13.70;39.30;;;;;;5051274;28;20980;-42
2021/03/28 07:49:08;;;;;;;2.30;1.50;;;13.60;39.50;;;;;;5053271;28;20419;-42
2021/03/28 07:51:54;;;;;;;3.60;1.80;;;14.00;39.70;;;;;;5052250;28;20483;-42
2021/03/28 07:54:32;;;;;;;7.47;2.33;;;14.20;39.10;;;;;;5051348;28;20450;-42
2021/03/28 07:57:24;;;;;;;3.37;1.80;;;14.50;38.80;;;;;;5051200;28;20439;-41
2021/03/28 08:00:20;;;;;;;6.40;2.40;;;14.70;38.50;;;;;;5029127;28;20436;-42
2021/03/28 08:03:31;;;;;;;4.20;2.20;;;14.20;38.20;;;;;;5043162;28;20427;-42
2021/03/28 08:06:31;;;;;;;6.70;2.20;;;14.30;38.60;;;;;;5052222;28;20519;-42
2021/03/28 08:09:34;;;;;;;2.70;1.83;;;14.50;38.60;;;;;;5052780;28;20819;-43
2021/03/28 08:12:21;;;;;;;5.40;2.80;;;14.40;38.60;;;;;;5051566;28;20986;-42
2021/03/28 08:15:14;;;;;;;7.23;2.20;;;14.40;38.60;;;;;;5052144;28;20435;-44
2021/03/28 08:18:04;;;;;;;4.87;1.97;;;14.70;38.40;;;;;;5051915;28;20431;-42
2021/03/28 08:20:57;;;;;;;4.40;1.97;;;15.10;37.70;;;;;;5048643;28;20474;-42
2021/03/28 08:23:43;;;;;;;4.93;2.30;;;14.90;38.00;;;;;;5051922;28;20927;-42
2021/03/28 08:26:38;;;;;;;3.40;2.00;;;15.10;37.50;;;;;;5052034;28;20478;-42
2021/03/28 08:29:36;;;;;;;3.20;2.20;;;15.30;37.60;;;;;;5052466;28;20467;-45
2021/03/28 08:32:20;;;;;;;5.93;2.03;;;15.30;37.50;;;;;;5033000;28;20487;-42
2021/03/28 08:35:05;;;;;;;2.87;2.00;;;15.60;36.70;;;;;;5039349;28;20775;-43
2021/03/28 08:37:48;;;;;;;3.17;1.80;;;15.60;36.90;;;;;;5051102;28;20462;-42
2021/03/28 08:40:25;;;;;;;4.07;2.30;;;15.80;37.20;;;;;;5050119;28;20509;-43
2021/03/28 08:43:09;;;;;;;5.03;2.27;;;15.90;36.90;;;;;;5051568;28;20435;-42
2021/03/28 08:45:59;;;;;;;4.77;2.00;;;16.10;37.00;;;;;;5051513;28;20439;-44
2021/03/28 08:48:28;;;;;;;4.37;1.97;;;16.40;36.40;;;;;;5051971;28;20429;-43
2021/03/28 08:50:59;;;;;;;3.17;1.87;;;16.70;36.10;;;;;;5051243;28;20463;-42
2021/03/28 08:54:01;;;;;;;6.23;2.10;;;17.00;35.80;;;;;;5051390;28;20483;-45
2021/03/28 08:56:48;;;;;;;4.17;1.93;;;17.40;35.40;;;;;;5051355;28;20438;-42
2021/03/28 08:59:37;;;;;;;3.60;2.63;;;17.50;35.10;;;;;;5052057;28;20448;-43
2021/03/28 09:02:05;;;;;;;7.37;2.60;;;17.50;34.50;;;;;;5026216;28;20439;-42
2021/03/28 09:04:52;;;;;;;4.53;2.50;;;17.70;35.00;;;;;;5051432;28;20473;-43
2021/03/28 09:07:39;;;;;;;6.87;2.83;;;17.60;34.60;;;;;;5049902;28;20474;-41
2021/03/28 09:10:42;;;;;;;7.67;2.37;;;17.60;34.80;;;;;;5050860;28;20458;-43
2021/03/28 09:13:39;;;;;;;5.97;2.50;;;17.70;34.70;;;;;;5051088;28;20497;-42
2021/03/28 09:16:44;;;;;;;3.17;1.40;;;18.00;33.90;;;;;;5050265;28;20473;-42
2021/03/28 09:19:47;;;;;;;6.80;2.33;;;18.30;34.00;;;;;;5049189;28;20497;-42
2021/03/28 09:22:45;;;;;;;2.77;1.77;;;18.60;33.00;;;;;;5042549;28;20434;-42
2021/03/28 09:25:26;;;;;;;6.43;2.40;;;18.90;34.20;;;;;;5050759;28;20436;-42
2021/03/28 09:28:15;;;;;;;3.80;2.30;;;18.90;32.50;;;;;;5050224;28;20463;-45
2021/03/28 09:30:52;;;;;;;5.60;2.70;;;19.10;32.80;;;;;;5050481;28;20415;-43
2021/03/28 09:33:41;;;;;;;4.20;2.10;;;19.20;32.80;;;;;;5037095;28;20533;-42
2021/03/28 09:36:25;;;;;;;3.30;1.97;;;19.30;32.60;;;;;;5050678;28;20463;-43
2021/03/28 09:39:02;;;;;;;5.13;2.13;;;19.50;32.60;;;;;;5050906;28;20862;-43
2021/03/28 09:42:05;;;;;;;4.83;1.80;;;19.60;32.00;;;;;;5050541;28;20435;-42
2021/03/28 09:44:55;;;;;;;4.90;1.70;;;19.50;29.60;;;;;;5050740;28;20514;-43
2021/03/28 09:47:27;;;;;;;6.40;2.33;;;19.50;29.30;;;;;;5050865;28;20439;-43
2021/03/28 09:50:34;;;;;;;2.53;1.70;;;19.60;29.00;;;;;;5049992;28;20431;-43
2021/03/28 09:53:28;;;;;;;2.70;1.83;;;19.60;29.20;;;;;;5050553;28;20478;-43
2021/03/28 09:56:31;;;;;;;5.40;1.93;;;19.80;29.50;;;;;;5050505;28;20463;-43
2021/03/28 09:59:35;;;;;;;3.10;2.00;;;19.90;27.80;;;;;;5049249;28;20577;-42
2021/03/28 10:03:05;;;;;;;3.43;1.63;;;19.70;27.90;;;;;;5050326;28;20443;-43
2021/03/28 10:05:33;;;;;;;2.50;1.50;;;19.90;29.00;;;;;;5008277;28;21546;-43
2021/03/28 10:08:07;;;;;;;3.27;1.80;;;20.00;28.30;;;;;;5008654;28;20471;-42
2021/03/28 10:10:54;;;;;;;3.17;1.50;;;20.00;27.90;;;;;;5027003;28;20988;-42
2021/03/28 10:13:29;;;;;;;4.07;2.00;;;20.10;28.10;;;;;;5050115;28;20905;-45
2021/03/28 10:16:05;;;;;;;2.73;1.77;;;19.90;28.10;;;;;;5050304;28;20433;-43
2021/03/28 10:19:09;;;;;;;5.07;2.07;;;20.00;28.60;;;;;;5050279;28;20435;-43
2021/03/28 10:22:04;;;;;;;4.20;2.30;;;20.20;28.00;;;;;;5048855;28;20993;-43
2021/03/28 10:24:48;;;;;;;8.97;2.03;;;20.60;27.10;;;;;;5049959;28;20431;-42
2021/03/28 10:27:39;;;;;;;2.70;1.50;;;20.00;26.70;;;;;;5048763;28;20450;-43
2021/03/28 10:30:16;;;;;;;2.67;1.57;;;20.10;27.20;;;;;;5050214;28;20526;-42
2021/03/28 10:33:01;;;;;;;2.87;1.50;;;20.20;26.80;;;;;;5050097;28;20482;-43
2021/03/28 10:36:10;;;;;;;4.13;1.40;;;20.30;26.40;;;;;;5049905;28;20482;-42
2021/03/28 10:38:53;;;;;;;2.40;1.57;;;20.30;26.30;;;;;;5050418;28;20828;-42
2021/03/28 10:41:34;;;;;;;2.20;1.60;;;20.20;26.40;;;;;;5049925;28;20784;-42
2021/03/28 10:44:31;;;;;;;4.10;1.63;;;20.30;27.20;;;;;;5049704;28;20454;-42
2021/03/28 10:47:24;;;;;;;1.67;1.53;;;20.50;26.70;;;;;;5049947;28;20852;-43
2021/03/28 10:50:16;;;;;;;2.20;1.47;;;20.70;26.30;;;;;;5050336;28;20467;-45
2021/03/28 10:53:19;;;;;;;2.20;1.60;;;20.90;26.40;;;;;;5048223;28;20478;-43
2021/03/28 10:55:59;;;;;;;3.17;1.93;;;21.10;26.70;;;;;;5049937;28;20530;-43
2021/03/28 10:58:34;;;;;;;3.80;2.10;;;21.40;26.50;;;;;;5050258;28;20477;-42
2021/03/28 11:01:14;;;;;;;2.50;2.17;;;21.50;26.60;;;;;;5051491;28;20792;-42
2021/03/28 11:04:10;;;;;;;5.83;1.93;;;21.60;26.40;;;;;;5053642;28;20439;-43
2021/03/28 11:07:11;;;;;;;2.50;1.60;;;21.50;26.50;;;;;;5053091;28;20472;-42
2021/03/28 11:10:14;;;;;;;3.63;1.77;;;21.70;26.50;;;;;;5054433;28;21247;-42
2021/03/28 11:13:21;;;;;;;2.07;1.20;;;21.30;27.30;;;;;;5053486;28;20506;-46
2021/03/28 11:15:58;;;;;;;2.50;1.97;;;21.20;27.00;;;;;;5044565;28;20468;-42
2021/03/28 11:18:55;;;;;;;3.03;1.67;;;21.10;27.10;;;;;;5053007;28;20429;-42
2021/03/28 11:21:33;;;;;;;3.23;1.80;;;21.10;26.10;;;;;;5049678;28;20435;-42
2021/03/28 11:24:36;;;;;;;2.37;1.50;;;21.20;26.60;;;;;;5053312;28;20500;-42
2021/03/28 11:27:25;;;;;;;3.50;1.97;;;21.60;26.70;;;;;;5053125;28;20488;-42
2021/03/28 11:30:09;;;;;;;3.87;1.63;;;21.80;25.70;;;;;;5054615;28;20434;-45
2021/03/28 11:32:52;;;;;;;3.47;1.63;;;22.00;26.00;;;;;;5048425;28;20844;-43
2021/03/28 11:35:37;;;;;;;2.50;1.47;;;22.30;25.90;;;;;;5052711;28;20443;-43
2021/03/28 11:38:18;;;;;;;5.23;1.73;;;22.50;25.40;;;;;;5053363;28;20446;-44
2021/03/28 11:40:51;;;;;;;3.10;1.70;;;22.70;25.10;;;;;;5052930;28;20443;-47
2021/03/28 11:43:44;;;;;;;4.30;1.77;;;22.80;24.50;;;;;;5053180;28;20423;-43
2021/03/28 11:46:24;;;;;;;2.53;1.50;;;22.70;24.30;;;;;;5051094;28;20419;-43
2021/03/28 11:48:53;;;;;;;2.60;1.33;;;22.60;24.40;;;;;;5053113;28;20530;-42
2021/03/28 11:51:18;;;;;;;3.60;1.60;;;22.50;24.20;;;;;;5052554;28;20441;-43
2021/03/28 11:53:47;;;;;;;3.80;1.57;;;22.30;23.90;;;;;;5052819;28;20428;-43
2021/03/28 11:56:34;;;;;;;4.40;1.83;;;22.50;24.50;;;;;;5052658;28;20196;-43
2021/03/28 11:59:19;;;;;;;3.30;1.70;;;22.80;24.50;;;;;;5052950;28;20458;-43
2021/03/28 12:01:54;;;;;;;4.67;1.50;;;22.40;24.10;;;;;;5048117;28;20432;-43
2021/03/28 12:04:23;;;;;;;3.40;1.77;;;22.50;24.70;;;;;;5052473;28;20778;-46
2021/03/28 12:07:09;;;;;;;3.63;1.53;;;22.40;24.10;;;;;;5051940;28;20459;-45
2021/03/28 12:09:35;;;;;;;2.63;1.60;;;22.30;24.60;;;;;;5052870;28;20514;-43
2021/03/28 12:12:36;;;;;;;7.17;1.93;;;22.40;24.60;;;;;;5052143;28;20581;-43
2021/03/28 12:15:42;;;;;;;4.00;1.93;;;22.70;24.70;;;;;;5035287;28;20220;-43
2021/03/28 12:21:04;;;;;;;3.60;2.03;;;22.80;24.10;;;;;;5048304;28;20835;-43
2021/03/28 12:23:48;;;;;;;2.70;1.53;;;22.90;24.30;;;;;;5052080;28;20934;-47
2021/03/28 12:26:28;;;;;;;7.40;2.00;;;23.10;24.60;;;;;;5052106;28;20802;-43
2021/03/28 12:29:02;;;;;;;4.00;2.20;;;22.80;23.90;;;;;;5052458;28;20447;-44
2021/03/28 12:31:30;;;;;;;2.50;1.57;;;22.70;23.90;;;;;;5051267;28;20801;-46
2021/03/28 12:34:02;;;;;;;5.07;1.77;;;22.60;24.10;;;;;;5052062;28;20431;-47
2021/03/28 12:36:45;;;;;;;3.03;1.80;;;22.60;24.30;;;;;;5051821;28;20781;-44
2021/03/28 12:39:13;;;;;;;3.83;2.10;;;22.50;24.40;;;;;;5050236;28;20430;-43
2021/03/28 12:41:59;;;;;;;3.60;2.43;;;22.60;24.80;;;;;;5051876;28;20443;-43
2021/03/28 12:44:30;;;;;;;7.37;2.40;;;22.80;24.80;;;;;;5051855;28;20419;-44
2021/03/28 12:47:06;;;;;;;2.90;1.60;;;23.00;24.30;;;;;;5051580;28;20423;-48
2021/03/28 12:49:32;;;;;;;3.63;2.00;;;23.00;24.50;;;;;;5051879;28;20488;-47
2021/03/28 12:52:12;;;;;;;5.37;2.13;;;22.90;24.60;;;;;;5051395;28;20482;-46
2021/03/28 12:55:00;;;;;;;3.40;1.67;;;22.50;25.10;;;;;;5051686;28;20220;-43
2021/03/28 12:57:46;;;;;;;3.00;1.90;;;22.60;24.70;;;;;;5051808;28;20803;-43
2021/03/28 13:00:26;;;;;;;2.93;1.70;;;22.60;24.80;;;;;;5050959;28;20480;-43
2021/03/28 13:02:54;;;;;;;3.33;1.80;;;22.60;24.80;;;;;;5051763;28;20526;-44
2021/03/28 13:05:31;;;;;;;2.70;1.77;;;22.50;24.70;;;;;;5051123;28;20849;-43
2021/03/28 13:08:18;;;;;;;3.13;2.00;;;22.40;24.70;;;;;;5049471;28;20477;-42
2021/03/28 13:10:45;;;;;;;3.80;1.77;;;22.70;24.50;;;;;;5051069;28;20926;-43
2021/03/28 13:13:13;;;;;;;5.60;1.93;;;22.90;24.40;;;;;;5051281;28;20496;-44
2021/03/28 13:15:51;;;;;;;5.17;2.20;;;22.90;24.60;;;;;;5051329;28;20944;-43
2021/03/28 13:18:41;;;;;;;2.20;1.60;;;23.10;24.50;;;;;;5050574;28;20474;-42
2021/03/28 13:21:28;;;;;;;4.97;1.80;;;23.10;23.80;;;;;;5047392;28;20453;-42
2021/03/28 13:23:56;;;;;;;3.53;1.87;;;23.20;24.10;;;;;;5050608;28;20426;-42
2021/03/28 13:26:22;;;;;;;4.10;2.13;;;23.30;23.80;;;;;;5050803;28;20430;-44
2021/03/28 13:28:57;;;;;;;2.30;2.10;;;23.20;23.90;;;;;;5051302;28;20439;-45
2021/03/28 13:31:39;;;;;;;4.53;1.90;;;23.10;23.70;;;;;;5050476;28;20758;-46
2021/03/28 13:34:25;;;;;;;2.50;1.57;;;23.10;24.20;;;;;;5049217;28;20596;-44
2021/03/28 13:37:05;;;;;;;3.70;2.00;;;23.20;24.20;;;;;;5050670;28;20961;-43
2021/03/28 13:39:57;;;;;;;5.70;1.97;;;22.90;23.80;;;;;;5051145;28;20442;-42
2021/03/28 13:42:27;;;;;;;4.10;2.10;;;22.90;24.10;;;;;;5050761;28;20427;-43
2021/03/28 13:45:00;;;;;;;2.23;1.70;;;22.70;24.20;;;;;;5051043;28;20423;-44
2021/03/28 13:47:38;;;;;;;3.37;2.30;;;22.60;24.20;;;;;;5051015;28;20514;-42
2021/03/28 13:50:32;;;;;;;4.50;1.93;;;22.60;24.00;;;;;;5050068;28;20845;-42
2021/03/28 13:53:01;;;;;;;3.90;1.40;;;22.60;24.30;;;;;;5050479;28;20515;-43
2021/03/28 13:55:46;;;;;;;2.50;1.60;;;22.70;24.70;;;;;;5050266;28;20426;-43
2021/03/28 13:58:27;;;;;;;4.93;2.20;;;22.90;24.40;;;;;;5050956;28;20452;-45
2021/03/28 14:01:22;;;;;;;2.90;1.63;;;22.90;24.20;;;;;;5048667;28;20799;-43
2021/03/28 14:03:55;;;;;;;2.70;1.40;;;23.00;24.40;;;;;;5050316;28;20462;-46
2021/03/28 14:06:30;;;;;;;3.43;2.00;;;23.10;24.10;;;;;;5050302;28;20415;-42
2021/03/28 14:09:05;;;;;;;4.70;2.00;;;23.10;24.00;;;;;;5049685;28;20814;-44
2021/03/28 14:11:46;;;;;;;3.40;1.80;;;23.30;24.20;;;;;;5049716;28;20466;-43
2021/03/28 14:14:27;;;;;;;5.00;2.37;;;23.00;23.70;;;;;;5050567;28;20427;-42
2021/03/28 14:16:57;;;;;;;3.97;1.70;;;23.30;24.20;;;;;;5049106;28;20525;-42
2021/03/28 14:19:35;;;;;;;2.97;1.87;;;23.20;23.70;;;;;;5047283;28;20938;-47
2021/03/28 14:22:35;;;;;;;3.17;2.33;;;23.00;23.90;;;;;;5049849;28;20423;-44
2021/03/28 14:25:07;;;;;;;2.07;1.70;;;23.00;24.10;;;;;;5049778;28;20850;-46
2021/03/28 14:27:38;;;;;;;4.60;1.60;;;23.10;24.00;;;;;;5048986;28;20427;-43